Terminal Aerodrome Forecast
Issued by NWS

Home | Current Version | Previous Version | Text Only | Print | Product List | Glossary On
Versions: 1 2 3 4 5 6 7 8 9 10 11 12 13 14 15 16 17
949
FTUS43 KTOP 241122
TAFFOE
TAF
KFOE 241122Z 2412/2512 12007KT 6SM TSRA BR SCT015 OVC050CB
      TEMPO 2412/2415 4SM TSRA
     FM241600 14009KT P6SM SCT025 BKN150
     FM242100 16010KT P6SM SCT035
     FM250800 17010KT P6SM VCTS SCT035CB=

USA.gov is the U.S. government's official web portal to all federal, state and local government web resources and services.